sensor_id;sensor_type;location;lat;lon;timestamp;pressure;altitude;pressure_sealevel;temperature;humidity
55914;BME280;58179;48.776;9.124;2022-09-16T00:00:16;96814.97;;;13.91;100.00
55914;BME280;58179;48.776;9.124;2022-09-16T00:02:42;96811.19;;;13.98;100.00
55914;BME280;58179;48.776;9.124;2022-09-16T00:05:08;96811.22;;;13.92;100.00
55914;BME280;58179;48.776;9.124;2022-09-16T00:07:34;96806.50;;;13.89;100.00
55914;BME280;58179;48.776;9.124;2022-09-16T00:10:02;96808.34;;;13.89;100.00
55914;BME280;58179;48.776;9.124;2022-09-16T00:12:29;96804.13;;;13.88;100.00
55914;BME280;58179;48.776;9.124;2022-09-16T00:14:55;96804.41;;;13.86;100.00
55914;BME280;58179;48.776;9.124;2022-09-16T00:17:21;96802.25;;;13.88;100.00
55914;BME280;58179;48.776;9.124;2022-09-16T00:19:47;96806.25;;;13.86;100.00
55914;BME280;58179;48.776;9.124;2022-09-16T00:22:15;96799.34;;;13.85;100.00
55914;BME280;58179;48.776;9.124;2022-09-16T00:24:41;96805.25;;;13.82;100.00
55914;BME280;58179;48.776;9.124;2022-09-16T00:27:09;96805.25;;;13.82;100.00
55914;BME280;58179;48.776;9.124;2022-09-16T00:29:35;96804.94;;;13.83;100.00
55914;BME280;58179;48.776;9.124;2022-09-16T00:32:01;96800.72;;;13.82;100.00
55914;BME280;58179;48.776;9.124;2022-09-16T00:34:27;96804.47;;;13.81;100.00
55914;BME280;58179;48.776;9.124;2022-09-16T00:36:53;96812.72;;;13.80;100.00
55914;BME280;58179;48.776;9.124;2022-09-16T00:39:19;96811.41;;;13.77;100.00
55914;BME280;58179;48.776;9.124;2022-09-16T00:41:45;96811.94;;;13.79;100.00
55914;BME280;58179;48.776;9.124;2022-09-16T00:44:53;96803.72;;;13.76;100.00
55914;BME280;58179;48.776;9.124;2022-09-16T00:47:23;96812.28;;;13.73;100.00
55914;BME280;58179;48.776;9.124;2022-09-16T00:49:50;96803.78;;;13.71;100.00
55914;BME280;58179;48.776;9.124;2022-09-16T00:52:19;96817.69;;;13.68;100.00
55914;BME280;58179;48.776;9.124;2022-09-16T00:54:45;96812.91;;;13.65;100.00
55914;BME280;58179;48.776;9.124;2022-09-16T00:57:12;96824.63;;;13.64;100.00
55914;BME280;58179;48.776;9.124;2022-09-16T00:59:42;96820.88;;;13.65;100.00
55914;BME280;58179;48.776;9.124;2022-09-16T01:02:15;96818.22;;;13.65;100.00
55914;BME280;58179;48.776;9.124;2022-09-16T01:04:45;96818.50;;;13.63;100.00
55914;BME280;58179;48.776;9.124;2022-09-16T01:07:13;96815.63;;;13.60;100.00
55914;BME280;58179;48.776;9.124;2022-09-16T01:09:40;96817.16;;;13.66;100.00
55914;BME280;58179;48.776;9.124;2022-09-16T01:12:06;96819.53;;;13.67;100.00
55914;BME280;58179;48.776;9.124;2022-09-16T01:14:32;96811.25;;;13.69;100.00
55914;BME280;58179;48.776;9.124;2022-09-16T01:17:27;96807.81;;;13.68;100.00
55914;BME280;58179;48.776;9.124;2022-09-16T01:23:44;96809.69;;;13.68;100.00
55914;BME280;58179;48.776;9.124;2022-09-16T01:26:58;96812.50;;;13.76;100.00
55914;BME280;58179;48.776;9.124;2022-09-16T01:29:46;96810.69;;;13.72;100.00
55914;BME280;58179;48.776;9.124;2022-09-16T01:32:22;96814.94;;;13.73;100.00
55914;BME280;58179;48.776;9.124;2022-09-16T01:34:56;96820.34;;;13.68;100.00
55914;BME280;58179;48.776;9.124;2022-09-16T01:37:37;96819.22;;;13.69;100.00
55914;BME280;58179;48.776;9.124;2022-09-16T01:40:11;96823.28;;;13.66;100.00
55914;BME280;58179;48.776;9.124;2022-09-16T01:42:50;96813.97;;;13.64;100.00
55914;BME280;58179;48.776;9.124;2022-09-16T01:45:23;96817.22;;;13.61;100.00
55914;BME280;58179;48.776;9.124;2022-09-16T01:48:02;96819.66;;;13.57;100.00
55914;BME280;58179;48.776;9.124;2022-09-16T01:50:36;96820.19;;;13.54;100.00
55914;BME280;58179;48.776;9.124;2022-09-16T01:53:10;96812.00;;;13.50;100.00
55914;BME280;58179;48.776;9.124;2022-09-16T01:55:49;96807.78;;;13.49;100.00
55914;BME280;58179;48.776;9.124;2022-09-16T01:58:22;96807.25;;;13.47;100.00
55914;BME280;58179;48.776;9.124;2022-09-16T02:00:59;96823.16;;;13.52;100.00
55914;BME280;58179;48.776;9.124;2022-09-16T02:03:33;96809.34;;;13.50;100.00
55914;BME280;58179;48.776;9.124;2022-09-16T02:06:04;96807.84;;;13.44;100.00
55914;BME280;58179;48.776;9.124;2022-09-16T02:11:06;96822.94;;;13.49;100.00
55914;BME280;58179;48.776;9.124;2022-09-16T02:13:35;96813.44;;;13.43;100.00
55914;BME280;58179;48.776;9.124;2022-09-16T02:16:07;96798.28;;;13.43;100.00
55914;BME280;58179;48.776;9.124;2022-09-16T02:18:40;96800.41;;;13.41;100.00
55914;BME280;58179;48.776;9.124;2022-09-16T02:21:10;96792.72;;;13.40;100.00
55914;BME280;58179;48.776;9.124;2022-09-16T02:23:43;96790.56;;;13.42;100.00
55914;BME280;58179;48.776;9.124;2022-09-16T02:26:14;96798.81;;;13.40;100.00
55914;BME280;58179;48.776;9.124;2022-09-16T02:28:43;96794.31;;;13.41;100.00
55914;BME280;58179;48.776;9.124;2022-09-16T02:31:12;96795.97;;;13.37;100.00
55914;BME280;58179;48.776;9.124;2022-09-16T02:33:46;96807.13;;;13.34;100.00
55914;BME280;58179;48.776;9.124;2022-09-16T02:36:20;96806.63;;;13.32;100.00
55914;BME280;58179;48.776;9.124;2022-09-16T02:38:50;96805.78;;;13.36;100.00
55914;BME280;58179;48.776;9.124;2022-09-16T02:41:18;96811.94;;;13.32;100.00
55914;BME280;58179;48.776;9.124;2022-09-16T02:43:44;96809.28;;;13.32;100.00
55914;BME280;58179;48.776;9.124;2022-09-16T02:46:20;96813.00;;;13.31;100.00
55914;BME280;58179;48.776;9.124;2022-09-16T02:48:56;96811.72;;;13.28;100.00
55914;BME280;58179;48.776;9.124;2022-09-16T02:51:32;96812.81;;;13.27;100.00
55914;BME280;58179;48.776;9.124;2022-09-16T02:54:08;96808.28;;;13.28;100.00
55914;BME280;58179;48.776;9.124;2022-09-16T02:56:37;96802.16;;;13.27;100.00
55914;BME280;58179;48.776;9.124;2022-09-16T02:59:07;96817.59;;;13.25;100.00
55914;BME280;58179;48.776;9.124;2022-09-16T03:01:39;96804.88;;;13.22;100.00
55914;BME280;58179;48.776;9.124;2022-09-16T03:04:07;96809.41;;;13.22;100.00
55914;BME280;58179;48.776;9.124;2022-09-16T03:06:34;96802.56;;;13.15;100.00
55914;BME280;58179;48.776;9.124;2022-09-16T03:09:02;96793.81;;;13.15;100.00
55914;BME280;58179;48.776;9.124;2022-09-16T03:15:16;96793.81;;;13.10;100.00
55914;BME280;58179;48.776;9.124;2022-09-16T03:17:59;96801.03;;;13.04;100.00
55914;BME280;58179;48.776;9.124;2022-09-16T03:20:39;96799.19;;;13.05;100.00
55914;BME280;58179;48.776;9.124;2022-09-16T03:23:17;96799.97;;;13.05;100.00
55914;BME280;58179;48.776;9.124;2022-09-16T03:25:51;96797.03;;;13.07;100.00
55914;BME280;58179;48.776;9.124;2022-09-16T03:28:26;96786.34;;;13.12;100.00
55914;BME280;58179;48.776;9.124;2022-09-16T03:31:02;96790.34;;;13.14;100.00
55914;BME280;58179;48.776;9.124;2022-09-16T03:33:35;96792.69;;;13.16;100.00
55914;BME280;58179;48.776;9.124;2022-09-16T03:36:08;96795.66;;;13.14;100.00
55914;BME280;58179;48.776;9.124;2022-09-16T03:38:37;96792.22;;;13.14;100.00
55914;BME280;58179;48.776;9.124;2022-09-16T03:41:05;96790.63;;;13.13;100.00
55914;BME280;58179;48.776;9.124;2022-09-16T03:43:32;96787.69;;;13.09;100.00
55914;BME280;58179;48.776;9.124;2022-09-16T03:45:58;96790.06;;;13.11;100.00
55914;BME280;58179;48.776;9.124;2022-09-16T03:48:24;96793.00;;;13.09;100.00
55914;BME280;58179;48.776;9.124;2022-09-16T03:50:50;96792.22;;;13.09;100.00
55914;BME280;58179;48.776;9.124;2022-09-16T03:53:17;96789.63;;;13.04;100.00
55914;BME280;58179;48.776;9.124;2022-09-16T03:55:44;96781.09;;;13.07;100.00
55914;BME280;58179;48.776;9.124;2022-09-16T03:58:09;96800.75;;;13.06;100.00
55914;BME280;58179;48.776;9.124;2022-09-16T04:00:35;96790.41;;;13.04;100.00
55914;BME280;58179;48.776;9.124;2022-09-16T04:03:02;96783.00;;;13.01;100.00
55914;BME280;58179;48.776;9.124;2022-09-16T04:05:28;96783.50;;;13.03;100.00
55914;BME280;58179;48.776;9.124;2022-09-16T04:07:54;96787.50;;;13.01;100.00
55914;BME280;58179;48.776;9.124;2022-09-16T04:10:21;96784.09;;;13.00;100.00
55914;BME280;58179;48.776;9.124;2022-09-16T04:12:47;96783.28;;;13.00;100.00
55914;BME280;58179;48.776;9.124;2022-09-16T04:15:13;96778.78;;;13.00;100.00
55914;BME280;58179;48.776;9.124;2022-09-16T04:17:39;96776.38;;;12.99;100.00
55914;BME280;58179;48.776;9.124;2022-09-16T04:20:06;96772.66;;;13.00;100.00
55914;BME280;58179;48.776;9.124;2022-09-16T04:22:33;96770.81;;;13.00;100.00
55914;BME280;58179;48.776;9.124;2022-09-16T04:24:59;96772.66;;;13.00;100.00
55914;BME280;58179;48.776;9.124;2022-09-16T04:27:26;96766.03;;;12.97;100.00
55914;BME280;58179;48.776;9.124;2022-09-16T04:29:52;96755.97;;;12.94;100.00
55914;BME280;58179;48.776;9.124;2022-09-16T04:32:18;96761.00;;;12.96;100.00
55914;BME280;58179;48.776;9.124;2022-09-16T04:34:44;96757.59;;;12.90;100.00
55914;BME280;58179;48.776;9.124;2022-09-16T04:37:10;96761.28;;;12.94;100.00
55914;BME280;58179;48.776;9.124;2022-09-16T04:39:36;96759.69;;;12.93;100.00
55914;BME280;58179;48.776;9.124;2022-09-16T04:42:02;96768.44;;;12.94;100.00
55914;BME280;58179;48.776;9.124;2022-09-16T04:44:31;96766.91;;;12.93;100.00
55914;BME280;58179;48.776;9.124;2022-09-16T04:46:57;96760.78;;;12.92;100.00
55914;BME280;58179;48.776;9.124;2022-09-16T04:49:23;96755.47;;;12.92;100.00
55914;BME280;58179;48.776;9.124;2022-09-16T04:51:49;96762.66;;;12.92;100.00
55914;BME280;58179;48.776;9.124;2022-09-16T04:54:16;96771.41;;;12.92;100.00
55914;BME280;58179;48.776;9.124;2022-09-16T04:56:42;96766.38;;;12.91;100.00
55914;BME280;58179;48.776;9.124;2022-09-16T04:59:09;96763.47;;;12.87;100.00
55914;BME280;58179;48.776;9.124;2022-09-16T05:01:38;96765.84;;;12.89;100.00
55914;BME280;58179;48.776;9.124;2022-09-16T05:04:06;96772.75;;;12.90;100.00
55914;BME280;58179;48.776;9.124;2022-09-16T05:06:34;96780.19;;;12.88;100.00
55914;BME280;58179;48.776;9.124;2022-09-16T05:09:01;96779.66;;;12.91;100.00
55914;BME280;58179;48.776;9.124;2022-09-16T05:11:30;96784.19;;;12.90;100.00
55914;BME280;58179;48.776;9.124;2022-09-16T05:13:58;96784.44;;;12.89;100.00
55914;BME280;58179;48.776;9.124;2022-09-16T05:16:24;96781.06;;;12.83;100.00
55914;BME280;58179;48.776;9.124;2022-09-16T05:18:54;96778.66;;;12.82;100.00
55914;BME280;58179;48.776;9.124;2022-09-16T05:21:23;96773.59;;;12.85;100.00
55914;BME280;58179;48.776;9.124;2022-09-16T05:23:49;96770.69;;;12.82;100.00
55914;BME280;58179;48.776;9.124;2022-09-16T05:26:17;96779.75;;;12.80;100.00
55914;BME280;58179;48.776;9.124;2022-09-16T05:28:43;96786.13;;;12.79;100.00
55914;BME280;58179;48.776;9.124;2022-09-16T05:31:11;96781.38;;;12.76;100.00
55914;BME280;58179;48.776;9.124;2022-09-16T05:33:38;96784.03;;;12.76;100.00
55914;BME280;58179;48.776;9.124;2022-09-16T05:36:09;96783.78;;;12.73;100.00
55914;BME280;58179;48.776;9.124;2022-09-16T05:38:35;96771.56;;;12.72;100.00
55914;BME280;58179;48.776;9.124;2022-09-16T05:41:02;96781.41;;;12.71;100.00
55914;BME280;58179;48.776;9.124;2022-09-16T05:43:29;96781.19;;;12.68;100.00
55914;BME280;58179;48.776;9.124;2022-09-16T05:45:56;96784.91;;;12.67;100.00
55914;BME280;58179;48.776;9.124;2022-09-16T05:48:22;96778.28;;;12.64;100.00
55914;BME280;58179;48.776;9.124;2022-09-16T05:50:52;96787.56;;;12.67;100.00
55914;BME280;58179;48.776;9.124;2022-09-16T05:53:20;96788.09;;;12.64;100.00
55914;BME280;58179;48.776;9.124;2022-09-16T05:55:55;96785.22;;;12.60;100.00
55914;BME280;58179;48.776;9.124;2022-09-16T05:58:21;96786.84;;;12.56;100.00
55914;BME280;58179;48.776;9.124;2022-09-16T06:00:47;96785.56;;;12.54;100.00
55914;BME280;58179;48.776;9.124;2022-09-16T06:03:13;96787.16;;;12.55;100.00
55914;BME280;58179;48.776;9.124;2022-09-16T06:05:38;96787.16;;;12.55;100.00
55914;BME280;58179;48.776;9.124;2022-09-16T06:08:04;96794.31;;;12.54;100.00
55914;BME280;58179;48.776;9.124;2022-09-16T06:10:37;96795.13;;;12.55;100.00
55914;BME280;58179;48.776;9.124;2022-09-16T06:13:03;96794.84;;;12.51;100.00
55914;BME280;58179;48.776;9.124;2022-09-16T06:15:29;96790.38;;;12.47;100.00
55914;BME280;58179;48.776;9.124;2022-09-16T06:17:56;96788.81;;;12.46;100.00
55914;BME280;58179;48.776;9.124;2022-09-16T06:20:22;96792.25;;;12.46;100.00
55914;BME280;58179;48.776;9.124;2022-09-16T06:22:49;96791.97;;;12.48;100.00
55914;BME280;58179;48.776;9.124;2022-09-16T06:25:15;96794.91;;;12.46;100.00
55914;BME280;58179;48.776;9.124;2022-09-16T06:27:42;96798.03;;;12.53;100.00
55914;BME280;58179;48.776;9.124;2022-09-16T06:30:10;96802.28;;;12.49;100.00
55914;BME280;58179;48.776;9.124;2022-09-16T06:32:35;96806.03;;;12.48;100.00
55914;BME280;58179;48.776;9.124;2022-09-16T06:35:03;96803.88;;;12.50;100.00
55914;BME280;58179;48.776;9.124;2022-09-16T06:37:29;96797.28;;;12.48;100.00
55914;BME280;58179;48.776;9.124;2022-09-16T06:39:55;96805.75;;;12.50;100.00
55914;BME280;58179;48.776;9.124;2022-09-16T06:42:21;96803.38;;;12.48;100.00
55914;BME280;58179;48.776;9.124;2022-09-16T06:44:48;96798.56;;;12.50;100.00
55914;BME280;58179;48.776;9.124;2022-09-16T06:47:14;96805.53;;;12.46;100.00
55914;BME280;58179;48.776;9.124;2022-09-16T06:49:40;96801.81;;;12.42;100.00
55914;BME280;58179;48.776;9.124;2022-09-16T06:52:06;96798.91;;;12.44;100.00
55914;BME280;58179;48.776;9.124;2022-09-16T06:54:34;96798.84;;;12.49;100.00
55914;BME280;58179;48.776;9.124;2022-09-16T06:56:59;96795.41;;;12.48;100.00
55914;BME280;58179;48.776;9.124;2022-09-16T06:59:26;96795.97;;;12.45;100.00
55914;BME280;58179;48.776;9.124;2022-09-16T07:01:53;96795.44;;;12.43;100.00
55914;BME280;58179;48.776;9.124;2022-09-16T07:04:19;96797.56;;;12.46;100.00
55914;BME280;58179;48.776;9.124;2022-09-16T07:06:45;96808.44;;;12.45;100.00
55914;BME280;58179;48.776;9.124;2022-09-16T07:09:11;96810.31;;;12.44;100.00
55914;BME280;58179;48.776;9.124;2022-09-16T07:11:37;96810.84;;;12.46;100.00
55914;BME280;58179;48.776;9.124;2022-09-16T07:14:05;96811.63;;;12.47;100.00
55914;BME280;58179;48.776;9.124;2022-09-16T07:16:34;96818.53;;;12.43;100.00
55914;BME280;58179;48.776;9.124;2022-09-16T07:19:01;96814.59;;;12.40;100.00
55914;BME280;58179;48.776;9.124;2022-09-16T07:21:28;96819.34;;;12.43;100.00
55914;BME280;58179;48.776;9.124;2022-09-16T07:23:59;96827.63;;;12.36;100.00
55914;BME280;58179;48.776;9.124;2022-09-16T07:26:28;96833.97;;;12.35;100.00
55914;BME280;58179;48.776;9.124;2022-09-16T07:28:54;96832.97;;;12.31;100.00
55914;BME280;58179;48.776;9.124;2022-09-16T07:31:26;96825.53;;;12.28;100.00
55914;BME280;58179;48.776;9.124;2022-09-16T07:33:54;96810.69;;;12.27;100.00
55914;BME280;58179;48.776;9.124;2022-09-16T07:36:25;96814.38;;;12.31;100.00
55914;BME280;58179;48.776;9.124;2022-09-16T07:38:52;96820.97;;;12.34;100.00
55914;BME280;58179;48.776;9.124;2022-09-16T07:41:23;96826.59;;;12.32;100.00
55914;BME280;58179;48.776;9.124;2022-09-16T07:43:49;96829.78;;;12.29;100.00
55914;BME280;58179;48.776;9.124;2022-09-16T07:46:17;96827.13;;;12.29;100.00
55914;BME280;58179;48.776;9.124;2022-09-16T07:48:46;96824.22;;;12.31;100.00
55914;BME280;58179;48.776;9.124;2022-09-16T07:51:16;96826.03;;;12.35;100.00
55914;BME280;58179;48.776;9.124;2022-09-16T07:53:44;96830.00;;;12.38;100.00
55914;BME280;58179;48.776;9.124;2022-09-16T07:56:13;96828.16;;;12.33;100.00
55914;BME280;58179;48.776;9.124;2022-09-16T07:58:40;96832.41;;;12.34;100.00
55914;BME280;58179;48.776;9.124;2022-09-16T08:01:07;96844.34;;;12.37;100.00
55914;BME280;58179;48.776;9.124;2022-09-16T08:03:35;96841.41;;;12.38;100.00
55914;BME280;58179;48.776;9.124;2022-09-16T08:06:03;96839.03;;;12.37;100.00
55914;BME280;58179;48.776;9.124;2022-09-16T08:08:30;96836.31;;;12.42;100.00
55914;BME280;58179;48.776;9.124;2022-09-16T08:10:58;96827.25;;;12.48;100.00
55914;BME280;58179;48.776;9.124;2022-09-16T08:13:26;96835.19;;;12.53;100.00
55914;BME280;58179;48.776;9.124;2022-09-16T08:15:54;96830.66;;;12.59;100.00
55914;BME280;58179;48.776;9.124;2022-09-16T08:18:21;96843.88;;;12.64;100.00
55914;BME280;58179;48.776;9.124;2022-09-16T08:20:47;96837.50;;;12.65;100.00
55914;BME280;58179;48.776;9.124;2022-09-16T08:23:12;96833.25;;;12.64;100.00
55914;BME280;58179;48.776;9.124;2022-09-16T08:25:39;96840.66;;;12.67;100.00
55914;BME280;58179;48.776;9.124;2022-09-16T08:28:11;96844.91;;;12.68;100.00
55914;BME280;58179;48.776;9.124;2022-09-16T08:30:37;96846.72;;;12.72;100.00
55914;BME280;58179;48.776;9.124;2022-09-16T08:33:03;96844.31;;;12.76;100.00
55914;BME280;58179;48.776;9.124;2022-09-16T08:35:29;96854.91;;;12.81;100.00
55914;BME280;58179;48.776;9.124;2022-09-16T08:37:55;96855.69;;;12.82;100.00
55914;BME280;58179;48.776;9.124;2022-09-16T08:40:23;96866.06;;;12.78;100.00
55914;BME280;58179;48.776;9.124;2022-09-16T08:42:59;96858.66;;;12.75;100.00
55914;BME280;58179;48.776;9.124;2022-09-16T08:45:34;96858.16;;;12.73;100.00
55914;BME280;58179;48.776;9.124;2022-09-16T08:48:26;96869.34;;;12.70;100.00
55914;BME280;58179;48.776;9.124;2022-09-16T08:50:57;96868.25;;;12.71;100.00
55914;BME280;58179;48.776;9.124;2022-09-16T08:53:32;96871.69;;;12.71;100.00
55914;BME280;58179;48.776;9.124;2022-09-16T08:56:04;96878.84;;;12.76;100.00
55914;BME280;58179;48.776;9.124;2022-09-16T08:58:37;96877.50;;;12.78;100.00
55914;BME280;58179;48.776;9.124;2022-09-16T09:01:26;96871.63;;;12.82;100.00
55914;BME280;58179;48.776;9.124;2022-09-16T09:03:54;96869.97;;;12.91;100.00
55914;BME280;58179;48.776;9.124;2022-09-16T09:06:47;96864.34;;;12.97;100.00
55914;BME280;58179;48.776;9.124;2022-09-16T09:09:34;96862.81;;;12.91;100.00
55914;BME280;58179;48.776;9.124;2022-09-16T09:12:12;96860.16;;;12.86;100.00
55914;BME280;58179;48.776;9.124;2022-09-16T09:14:59;96863.63;;;12.87;100.00
55914;BME280;58179;48.776;9.124;2022-09-16T09:17:38;96864.09;;;12.94;100.00
55914;BME280;58179;48.776;9.124;2022-09-16T09:20:19;96860.75;;;12.78;100.00
55914;BME280;58179;48.776;9.124;2022-09-16T09:23:08;96858.41;;;12.76;100.00
55914;BME280;58179;48.776;9.124;2022-09-16T09:25:42;96862.13;;;12.75;100.00
55914;BME280;58179;48.776;9.124;2022-09-16T09:28:38;96853.84;;;12.82;100.00
55914;BME280;58179;48.776;9.124;2022-09-16T09:31:17;96855.06;;;12.56;100.00
55914;BME280;58179;48.776;9.124;2022-09-16T09:33:53;96849.59;;;12.42;100.00
55914;BME280;58179;48.776;9.124;2022-09-16T09:36:41;96855.97;;;12.46;100.00
55914;BME280;58179;48.776;9.124;2022-09-16T09:39:42;96857.41;;;12.67;100.00
55914;BME280;58179;48.776;9.124;2022-09-16T09:42:13;96858.31;;;12.53;100.00
55914;BME280;58179;48.776;9.124;2022-09-16T09:44:49;96863.03;;;12.56;100.00
55914;BME280;58179;48.776;9.124;2022-09-16T09:47:22;96849.97;;;12.64;100.00
55914;BME280;58179;48.776;9.124;2022-09-16T09:49:56;96855.75;;;12.76;100.00
55914;BME280;58179;48.776;9.124;2022-09-16T09:52:27;96851.19;;;12.82;100.00
55914;BME280;58179;48.776;9.124;2022-09-16T09:55:12;96853.47;;;12.94;100.00
55914;BME280;58179;48.776;9.124;2022-09-16T09:57:43;96853.25;;;12.90;100.00
55914;BME280;58179;48.776;9.124;2022-09-16T10:00:15;96854.81;;;12.91;100.00
55914;BME280;58179;48.776;9.124;2022-09-16T10:02:43;96863.59;;;12.92;100.00
55914;BME280;58179;48.776;9.124;2022-09-16T10:05:20;96862.28;;;12.89;100.00
55914;BME280;58179;48.776;9.124;2022-09-16T10:07:48;96862.53;;;12.93;100.00
55914;BME280;58179;48.776;9.124;2022-09-16T10:10:20;96865.94;;;12.93;100.00
55914;BME280;58179;48.776;9.124;2022-09-16T10:12:46;96861.47;;;12.89;100.00
55914;BME280;58179;48.776;9.124;2022-09-16T10:15:22;96863.63;;;12.87;100.00
55914;BME280;58179;48.776;9.124;2022-09-16T10:17:49;96859.16;;;12.82;100.00
55914;BME280;58179;48.776;9.124;2022-09-16T10:20:27;96868.44;;;12.79;100.00
55914;BME280;58179;48.776;9.124;2022-09-16T10:23:00;96865.53;;;12.81;100.00
55914;BME280;58179;48.776;9.124;2022-09-16T10:25:29;96856.25;;;12.78;100.00
55914;BME280;58179;48.776;9.124;2022-09-16T10:27:57;96860.97;;;12.87;100.00
55914;BME280;58179;48.776;9.124;2022-09-16T10:30:26;96855.69;;;12.82;100.00
55914;BME280;58179;48.776;9.124;2022-09-16T10:32:56;96850.91;;;12.84;100.00
55914;BME280;58179;48.776;9.124;2022-09-16T10:35:26;96842.88;;;12.89;100.00
55914;BME280;58179;48.776;9.124;2022-09-16T10:37:55;96847.41;;;12.88;100.00
55914;BME280;58179;48.776;9.124;2022-09-16T10:40:22;96842.66;;;12.85;100.00
55914;BME280;58179;48.776;9.124;2022-09-16T10:42:50;96851.69;;;12.84;100.00
55914;BME280;58179;48.776;9.124;2022-09-16T10:45:24;96848.13;;;12.99;100.00
55914;BME280;58179;48.776;9.124;2022-09-16T10:47:56;96853.06;;;13.10;100.00
55914;BME280;58179;48.776;9.124;2022-09-16T10:50:25;96855.44;;;13.12;100.00
55914;BME280;58179;48.776;9.124;2022-09-16T10:52:51;96858.88;;;13.17;100.00
55914;BME280;58179;48.776;9.124;2022-09-16T10:55:26;96860.22;;;13.15;100.00
55914;BME280;58179;48.776;9.124;2022-09-16T10:58:05;96861.50;;;13.23;100.00
55914;BME280;58179;48.776;9.124;2022-09-16T11:00:39;96857.72;;;13.24;100.00
55914;BME280;58179;48.776;9.124;2022-09-16T11:03:31;96861.75;;;13.21;100.00
55914;BME280;58179;48.776;9.124;2022-09-16T11:06:21;96867.56;;;13.23;100.00
55914;BME280;58179;48.776;9.124;2022-09-16T11:09:03;96874.19;;;13.26;100.00
55914;BME280;58179;48.776;9.124;2022-09-16T11:11:54;96873.13;;;13.27;100.00
55914;BME280;58179;48.776;9.124;2022-09-16T11:14:38;96878.44;;;13.27;100.00
55914;BME280;58179;48.776;9.124;2022-09-16T11:17:23;96881.16;;;13.22;100.00
55914;BME280;58179;48.776;9.124;2022-09-16T11:20:14;96884.16;;;13.15;100.00
55914;BME280;58179;48.776;9.124;2022-09-16T11:22:57;96876.22;;;13.05;100.00
55914;BME280;58179;48.776;9.124;2022-09-16T11:25:37;96883.41;;;13.04;100.00
55914;BME280;58179;48.776;9.124;2022-09-16T11:28:36;96888.72;;;13.04;100.00
55914;BME280;58179;48.776;9.124;2022-09-16T11:31:13;96873.84;;;13.03;100.00
55914;BME280;58179;48.776;9.124;2022-09-16T11:33:49;96877.28;;;13.04;100.00
55914;BME280;58179;48.776;9.124;2022-09-16T11:36:33;96889.75;;;13.13;100.00
55914;BME280;58179;48.776;9.124;2022-09-16T11:39:21;96879.31;;;13.22;100.00
55914;BME280;58179;48.776;9.124;2022-09-16T11:41:57;96879.00;;;13.24;100.00
55914;BME280;58179;48.776;9.124;2022-09-16T11:44:51;96879.25;;;13.27;100.00
55914;BME280;58179;48.776;9.124;2022-09-16T11:47:50;96878.63;;;13.35;100.00
55914;BME280;58179;48.776;9.124;2022-09-16T11:50:30;96875.66;;;13.42;100.00
55914;BME280;58179;48.776;9.124;2022-09-16T11:53:21;96869.91;;;13.59;100.00
55914;BME280;58179;48.776;9.124;2022-09-16T11:55:56;96872.03;;;13.80;100.00
55914;BME280;58179;48.776;9.124;2022-09-16T11:58:32;96874.72;;;13.99;100.00
55914;BME280;58179;48.776;9.124;2022-09-16T12:01:08;96878.09;;;13.62;100.00
55914;BME280;58179;48.776;9.124;2022-09-16T12:03:44;96871.81;;;13.77;100.00
55914;BME280;58179;48.776;9.124;2022-09-16T12:06:16;96869.72;;;13.74;100.00
55914;BME280;58179;48.776;9.124;2022-09-16T12:08:53;96863.44;;;13.88;100.00
55914;BME280;58179;48.776;9.124;2022-09-16T12:11:31;96861.75;;;13.98;100.00
55914;BME280;58179;48.776;9.124;2022-09-16T12:14:14;96859.16;;;14.11;100.00
55914;BME280;58179;48.776;9.124;2022-09-16T12:16:46;96846.06;;;14.15;100.00
55914;BME280;58179;48.776;9.124;2022-09-16T12:19:24;96846.84;;;14.15;100.00
55914;BME280;58179;48.776;9.124;2022-09-16T12:21:58;96843.00;;;14.26;100.00
55914;BME280;58179;48.776;9.124;2022-09-16T12:27:45;96848.66;;;14.20;100.00
55914;BME280;58179;48.776;9.124;2022-09-16T12:30:17;96846.00;;;14.20;100.00
55914;BME280;58179;48.776;9.124;2022-09-16T12:32:58;96849.94;;;14.22;100.00
55914;BME280;58179;48.776;9.124;2022-09-16T12:35:30;96848.50;;;14.30;100.00
55914;BME280;58179;48.776;9.124;2022-09-16T12:37:58;96856.69;;;14.39;100.00
55914;BME280;58179;48.776;9.124;2022-09-16T12:40:26;96851.47;;;14.28;100.00
55914;BME280;58179;48.776;9.124;2022-09-16T12:43:44;96851.63;;;14.18;100.00
55914;BME280;58179;48.776;9.124;2022-09-16T12:46:32;96844.00;;;14.12;100.00
55914;BME280;58179;48.776;9.124;2022-09-16T12:49:51;96848.66;;;14.20;100.00
55914;BME280;58179;48.776;9.124;2022-09-16T12:52:31;96846.81;;;14.20;100.00
55914;BME280;58179;48.776;9.124;2022-09-16T12:55:41;96847.09;;;14.19;100.00
55914;BME280;58179;48.776;9.124;2022-09-16T13:01:19;96846.56;;;14.17;100.00
55914;BME280;58179;48.776;9.124;2022-09-16T13:03:49;96841.09;;;13.89;100.00
55914;BME280;58179;48.776;9.124;2022-09-16T13:06:27;96838.88;;;13.97;100.00
55914;BME280;58179;48.776;9.124;2022-09-16T13:08:55;96835.91;;;13.98;100.00
55914;BME280;58179;48.776;9.124;2022-09-16T13:11:24;96826.56;;;14.01;100.00
55914;BME280;58179;48.776;9.124;2022-09-16T13:13:55;96823.28;;;13.85;100.00
55914;BME280;58179;48.776;9.124;2022-09-16T13:16:33;96815.72;;;14.16;100.00
55914;BME280;58179;48.776;9.124;2022-09-16T13:19:26;96812.91;;;14.45;100.00
55914;BME280;58179;48.776;9.124;2022-09-16T13:21:57;96807.41;;;14.36;100.00
55914;BME280;58179;48.776;9.124;2022-09-16T13:24:33;96808.56;;;14.67;100.00
55914;BME280;58179;48.776;9.124;2022-09-16T13:27:33;96808.81;;;15.31;100.00
55914;BME280;58179;48.776;9.124;2022-09-16T13:30:26;96809.94;;;16.34;100.00
55914;BME280;58179;48.776;9.124;2022-09-16T13:33:26;96795.88;;;18.05;83.39